createdAt,value
2019-03-03T00:00:06.677Z,5.39
2019-03-03T00:01:06.692Z,5.51
2019-03-03T00:02:06.708Z,5.45
2019-03-03T00:03:21.383Z,5.39
2019-03-03T00:04:06.734Z,5.38
2019-03-03T00:05:06.766Z,5.42
2019-03-03T00:06:06.758Z,5.56
2019-03-03T00:07:06.775Z,5.54
2019-03-03T00:08:06.797Z,5.45
2019-03-03T00:09:06.804Z,5.57
2019-03-03T00:10:06.825Z,5.51
2019-03-03T00:11:06.837Z,5.61
2019-03-03T00:12:06.895Z,5.61
2019-03-03T00:13:06.865Z,5.68
2019-03-03T00:14:06.881Z,5.68
2019-03-03T00:15:06.650Z,5.68
2019-03-03T00:16:07.009Z,5.81
2019-03-03T00:17:06.923Z,5.71
2019-03-03T00:19:06.955Z,5.79
2019-03-03T00:20:06.968Z,5.76
2019-03-03T00:21:07.039Z,5.68
2019-03-03T00:22:07.012Z,5.79
2019-03-03T00:23:06.767Z,5.76
2019-03-03T00:24:07.032Z,5.86
2019-03-03T00:25:07.044Z,5.82
2019-03-03T00:26:07.058Z,5.91
2019-03-03T00:27:07.070Z,5.86
2019-03-03T00:28:21.749Z,5.94
2019-03-03T00:29:07.106Z,5.94
2019-03-03T00:30:06.886Z,5.9
2019-03-03T00:32:07.150Z,5.9
2019-03-03T00:33:07.166Z,5.9
2019-03-03T00:34:07.178Z,5.99
2019-03-03T00:35:07.191Z,5.97
2019-03-03T00:36:07.214Z,5.91
2019-03-03T00:37:07.226Z,5.94
2019-03-03T00:38:07.234Z,6.09
2019-03-03T00:39:07.251Z,6
2019-03-03T00:40:07.265Z,5.99
2019-03-03T00:41:07.298Z,6.06
2019-03-03T00:42:07.297Z,6.06
2019-03-03T00:43:07.311Z,6.06
2019-03-03T00:44:21.993Z,6.01
2019-03-03T00:45:07.344Z,6.06
2019-03-03T00:46:07.359Z,6.01
2019-03-03T00:47:07.375Z,6.06
2019-03-03T00:48:07.387Z,6.08
2019-03-03T00:49:07.407Z,6.09
2019-03-03T00:50:07.415Z,6.15
2019-03-03T00:51:07.433Z,6.01
2019-03-03T00:52:07.446Z,6.11
2019-03-03T00:53:07.215Z,6.11
2019-03-03T00:54:07.481Z,6.09
2019-03-03T00:56:22.170Z,6.15
2019-03-03T00:57:07.523Z,6.18
2019-03-03T00:58:07.539Z,6.17
2019-03-03T00:59:07.556Z,6.17
2019-03-03T01:00:22.235Z,6.17
2019-03-03T01:01:07.671Z,6.17
2019-03-03T01:02:07.602Z,6.28
2019-03-03T01:03:07.365Z,6.28
2019-03-03T01:04:07.626Z,6.22
2019-03-03T01:05:07.652Z,6.3
2019-03-03T01:06:07.661Z,6.31
2019-03-03T01:07:07.673Z,6.22
2019-03-03T01:08:22.455Z,6.28
2019-03-03T01:10:07.721Z,6.28
2019-03-03T01:11:07.736Z,6.22
2019-03-03T01:12:07.769Z,6.27
2019-03-03T01:13:07.766Z,6.3
2019-03-03T01:14:07.783Z,6.27
2019-03-03T01:15:07.812Z,6.27
2019-03-03T01:16:22.516Z,6.34
2019-03-03T01:17:07.830Z,6.31
2019-03-03T01:18:07.844Z,6.3
2019-03-03T01:19:07.857Z,6.34
2019-03-03T01:20:07.878Z,6.34
2019-03-03T01:21:07.885Z,6.43
2019-03-03T01:22:07.899Z,6.46
2019-03-03T01:23:08.048Z,6.49
2019-03-03T01:24:07.932Z,6.52
2019-03-03T01:25:22.613Z,6.38
2019-03-03T01:26:07.978Z,6.58
2019-03-03T01:27:09.080Z,6.55
2019-03-03T01:28:07.747Z,6.58
2019-03-03T01:29:08.804Z,6.52
2019-03-03T01:30:08.023Z,6.49
2019-03-03T01:31:22.704Z,6.55
2019-03-03T01:32:08.057Z,6.58
2019-03-03T01:33:08.088Z,6.51
2019-03-03T01:34:08.085Z,6.59
2019-03-03T01:35:08.115Z,6.59
2019-03-03T01:36:08.128Z,6.54
2019-03-03T01:38:08.144Z,6.56
2019-03-03T01:39:08.166Z,6.52
2019-03-03T01:40:08.175Z,6.54
2019-03-03T01:41:08.806Z,6.51
2019-03-03T01:43:08.220Z,6.69
2019-03-03T01:44:08.240Z,6.59
2019-03-03T01:45:08.363Z,6.55
2019-03-03T01:46:08.321Z,6.56
2019-03-03T01:47:08.294Z,6.54
2019-03-03T01:48:08.305Z,6.59
2019-03-03T01:49:08.353Z,6.61
2019-03-03T01:50:08.329Z,6.55
2019-03-03T01:51:08.346Z,6.61
2019-03-03T01:52:08.357Z,6.54
2019-03-03T01:53:08.382Z,6.55
2019-03-03T01:54:08.393Z,6.55
2019-03-03T01:55:08.403Z,6.64
2019-03-03T01:56:08.420Z,6.58
2019-03-03T01:57:08.437Z,6.61
2019-03-03T01:58:08.453Z,6.56
2019-03-03T01:59:08.472Z,6.59
2019-03-03T02:00:08.484Z,6.56
2019-03-03T02:01:08.499Z,6.58
2019-03-03T02:02:08.515Z,6.58
2019-03-03T02:03:23.190Z,6.56
2019-03-03T02:04:08.647Z,6.61
2019-03-03T02:05:08.563Z,6.61
2019-03-03T02:06:08.673Z,6.58
2019-03-03T02:07:08.594Z,6.59
2019-03-03T02:08:08.607Z,6.58
2019-03-03T02:09:08.620Z,6.56
2019-03-03T02:10:08.646Z,6.55
2019-03-03T02:11:08.651Z,6.61
2019-03-03T02:12:08.670Z,6.69
2019-03-03T02:13:08.683Z,6.59
2019-03-03T02:15:23.373Z,6.7
2019-03-03T02:16:23.391Z,6.66
2019-03-03T02:17:08.752Z,6.64
2019-03-03T02:18:08.757Z,6.7
2019-03-03T02:19:23.435Z,6.61
2019-03-03T02:20:08.787Z,6.69
2019-03-03T02:21:08.802Z,6.56
2019-03-03T02:22:08.820Z,6.67
2019-03-03T02:23:08.837Z,6.66
2019-03-03T02:24:08.848Z,6.64
2019-03-03T02:25:08.868Z,6.64
2019-03-03T02:26:08.878Z,6.69
2019-03-03T02:27:08.896Z,6.79
2019-03-03T02:28:08.911Z,6.74
2019-03-03T02:29:08.930Z,6.71
2019-03-03T02:30:08.949Z,6.71
2019-03-03T02:31:08.987Z,6.73
2019-03-03T02:32:23.634Z,6.73
2019-03-03T02:33:08.998Z,6.71
2019-03-03T02:34:09.023Z,6.7
2019-03-03T02:35:23.702Z,6.73
2019-03-03T02:36:09.044Z,6.84
2019-03-03T02:37:09.056Z,6.77
2019-03-03T02:38:09.115Z,6.77
2019-03-03T02:39:09.110Z,6.84
2019-03-03T02:40:09.098Z,6.8
2019-03-03T02:41:09.206Z,6.95
2019-03-03T02:42:09.131Z,6.85
2019-03-03T02:43:09.145Z,6.88
2019-03-03T02:44:09.178Z,6.94
2019-03-03T02:46:09.200Z,6.87
2019-03-03T02:47:09.206Z,6.85
2019-03-03T02:48:09.219Z,6.95
2019-03-03T02:49:09.258Z,6.89
2019-03-03T02:50:09.252Z,6.94
2019-03-03T02:51:23.942Z,6.89
2019-03-03T02:52:09.290Z,6.95
2019-03-03T02:53:09.305Z,6.94
2019-03-03T02:54:09.322Z,6.91
2019-03-03T02:55:09.326Z,6.97
2019-03-03T02:57:09.358Z,6.98
2019-03-03T02:58:09.374Z,6.95
2019-03-03T02:59:09.400Z,6.92
2019-03-03T03:00:09.406Z,7.02
2019-03-03T03:01:24.086Z,6.92
2019-03-03T03:02:09.444Z,7.02
2019-03-03T03:03:09.508Z,6.95
2019-03-03T03:04:09.479Z,6.92
2019-03-03T03:05:09.485Z,6.94
2019-03-03T03:06:24.164Z,6.98
2019-03-03T03:07:09.517Z,6.98
2019-03-03T03:08:09.531Z,6.91
2019-03-03T03:09:09.575Z,6.99
2019-03-03T03:10:09.569Z,6.99
2019-03-03T03:11:09.583Z,6.97
2019-03-03T03:12:09.596Z,6.94
2019-03-03T03:13:09.607Z,6.99
2019-03-03T03:14:09.629Z,6.95
2019-03-03T03:15:09.415Z,6.97
2019-03-03T03:16:09.662Z,7.05
2019-03-03T03:17:24.332Z,7.07
2019-03-03T03:18:09.722Z,7.12
2019-03-03T03:19:09.712Z,7.12
2019-03-03T03:20:09.731Z,7.09
2019-03-03T03:21:09.752Z,7.13
2019-03-03T03:22:09.856Z,6.99
2019-03-03T03:23:09.781Z,6.95
2019-03-03T03:24:09.781Z,6.97
2019-03-03T03:25:09.821Z,6.97
2019-03-03T03:26:09.808Z,6.91
2019-03-03T03:27:12.106Z,7.02
2019-03-03T03:28:09.846Z,6.95
2019-03-03T03:29:09.879Z,6.95
2019-03-03T03:30:09.878Z,7.05
2019-03-03T03:31:09.898Z,7.03
2019-03-03T03:32:09.921Z,6.95
2019-03-03T03:33:09.679Z,6.99
2019-03-03T03:34:09.957Z,6.98
2019-03-03T03:35:09.995Z,6.98
2019-03-03T03:36:09.971Z,6.97
2019-03-03T03:37:09.996Z,6.98
2019-03-03T03:38:24.661Z,6.95
2019-03-03T03:39:10.030Z,6.98
2019-03-03T03:40:10.064Z,7.05
2019-03-03T03:41:10.050Z,7.02
2019-03-03T03:43:10.073Z,7.03
2019-03-03T03:45:10.108Z,7.02
2019-03-03T03:46:10.121Z,6.95
2019-03-03T03:47:10.135Z,6.97
2019-03-03T03:48:10.156Z,7.02
2019-03-03T03:49:10.185Z,6.95
2019-03-03T03:50:10.196Z,6.95
2019-03-03T03:51:10.206Z,6.95
2019-03-03T03:52:24.878Z,7.12
2019-03-03T03:53:09.989Z,6.98
2019-03-03T03:54:24.912Z,7.1
2019-03-03T03:55:10.283Z,7.09
2019-03-03T03:56:24.946Z,7.06
2019-03-03T03:57:10.314Z,7.07
2019-03-03T03:58:10.316Z,7.12
2019-03-03T04:00:10.349Z,7.13
2019-03-03T04:01:10.367Z,7.16
2019-03-03T04:02:25.034Z,7.1
2019-03-03T04:03:10.492Z,7.06
2019-03-03T04:04:25.163Z,6.95
2019-03-03T04:05:10.419Z,6.98
2019-03-03T04:06:10.440Z,7.03
2019-03-03T04:07:10.459Z,7.12
2019-03-03T04:08:10.486Z,6.95
2019-03-03T04:09:10.479Z,6.97
2019-03-03T04:10:25.165Z,7.07
2019-03-03T04:11:10.506Z,6.97
2019-03-03T04:12:10.527Z,7.05
2019-03-03T04:13:10.546Z,6.99
2019-03-03T04:14:10.581Z,6.98
2019-03-03T04:15:10.674Z,7.03
2019-03-03T04:17:10.611Z,7.09
2019-03-03T04:18:25.283Z,7.1
2019-03-03T04:19:25.311Z,7.12
2019-03-03T04:20:10.701Z,7.15
2019-03-03T04:21:10.702Z,7.25
2019-03-03T04:22:25.341Z,7.1
2019-03-03T04:23:10.701Z,7.27
2019-03-03T04:24:10.719Z,7.27
2019-03-03T04:25:10.726Z,7.24
2019-03-03T04:26:25.405Z,7.24
2019-03-03T04:27:10.756Z,7.25
2019-03-03T04:28:10.783Z,7.3
2019-03-03T04:29:10.789Z,7.25
2019-03-03T04:30:10.809Z,7.25
2019-03-03T04:31:10.819Z,7.3
2019-03-03T04:32:10.836Z,7.28
2019-03-03T04:33:10.854Z,7.28
2019-03-03T04:34:10.876Z,7.35
2019-03-03T04:35:10.887Z,7.39
2019-03-03T04:36:10.906Z,7.42
2019-03-03T04:37:11.012Z,7.39
2019-03-03T04:38:10.927Z,7.35
2019-03-03T04:39:11.000Z,7.34
2019-03-03T04:40:10.959Z,7.49
2019-03-03T04:41:25.646Z,7.45
2019-03-03T04:42:11.003Z,7.46
2019-03-03T04:43:11.006Z,7.46
2019-03-03T04:44:11.025Z,7.45
2019-03-03T04:45:11.048Z,7.42
2019-03-03T04:46:11.056Z,7.52
2019-03-03T04:47:11.068Z,7.46
2019-03-03T04:48:11.087Z,7.48
2019-03-03T04:49:11.102Z,7.53
2019-03-03T04:50:11.118Z,7.52
2019-03-03T04:51:11.240Z,7.52
2019-03-03T04:53:11.164Z,7.57
2019-03-03T04:54:11.190Z,7.5
2019-03-03T04:55:10.953Z,7.52
2019-03-03T04:56:11.211Z,7.52
2019-03-03T04:57:11.227Z,7.49
2019-03-03T04:58:11.248Z,7.5
2019-03-03T04:59:11.268Z,7.63
2019-03-03T05:00:11.278Z,7.69
2019-03-03T05:01:11.289Z,7.58
2019-03-03T05:02:11.307Z,7.63
2019-03-03T05:03:11.323Z,7.63
2019-03-03T05:04:11.339Z,7.61
2019-03-03T05:07:11.391Z,7.75
2019-03-03T05:08:11.422Z,7.61
2019-03-03T05:09:11.430Z,7.63
2019-03-03T05:10:11.434Z,7.61
2019-03-03T05:11:11.451Z,7.63
2019-03-03T05:12:11.465Z,7.68
2019-03-03T05:13:26.145Z,7.68
2019-03-03T05:14:11.498Z,7.6
2019-03-03T05:15:11.517Z,7.71
2019-03-03T05:16:11.528Z,7.71
2019-03-03T05:17:13.551Z,7.74
2019-03-03T05:18:11.663Z,7.75
2019-03-03T05:19:11.579Z,7.71
2019-03-03T05:20:11.600Z,7.64
2019-03-03T05:21:11.610Z,7.77
2019-03-03T05:22:11.631Z,7.79
2019-03-03T05:23:11.642Z,7.77
2019-03-03T05:24:11.712Z,7.68
2019-03-03T05:25:11.680Z,7.87
2019-03-03T05:26:11.692Z,7.86
2019-03-03T05:27:11.712Z,7.8
2019-03-03T05:28:11.724Z,7.89
2019-03-03T05:29:26.401Z,7.85
2019-03-03T05:30:11.756Z,7.9
2019-03-03T05:31:11.869Z,7.8
2019-03-03T05:32:11.797Z,7.85
2019-03-03T05:33:11.805Z,7.85
2019-03-03T05:34:11.823Z,7.86
2019-03-03T05:35:11.836Z,7.93
2019-03-03T05:38:11.881Z,7.97
2019-03-03T05:40:11.917Z,8.07
2019-03-03T05:41:11.938Z,7.98
2019-03-03T05:42:26.610Z,7.95
2019-03-03T05:43:11.963Z,7.97
2019-03-03T05:44:11.986Z,8.01
2019-03-03T05:45:26.658Z,7.95
2019-03-03T05:46:12.010Z,7.98
2019-03-03T05:47:12.029Z,7.98
2019-03-03T05:48:12.044Z,8
2019-03-03T05:49:12.057Z,8.04
2019-03-03T05:50:12.075Z,8.04
2019-03-03T05:51:12.101Z,8.12
2019-03-03T05:53:12.122Z,8.04
2019-03-03T05:56:12.172Z,8.07
2019-03-03T05:57:12.194Z,8.01
2019-03-03T05:58:26.869Z,8.02
2019-03-03T05:59:12.226Z,8.04
2019-03-03T06:00:12.248Z,8.05
2019-03-03T06:01:26.918Z,8.11
2019-03-03T06:02:12.271Z,8.08
2019-03-03T06:03:12.290Z,8.05
2019-03-03T06:04:12.301Z,8.11
2019-03-03T06:05:12.321Z,8.05
2019-03-03T06:06:12.344Z,8.1
2019-03-03T06:07:12.352Z,8.11
2019-03-03T06:09:12.385Z,8.11
2019-03-03T06:12:12.434Z,8.29
2019-03-03T06:13:27.113Z,8.4
2019-03-03T06:14:12.467Z,8.33
2019-03-03T06:15:12.785Z,8.36
2019-03-03T06:16:27.161Z,8.33
2019-03-03T06:17:12.514Z,8.37
2019-03-03T06:18:12.531Z,8.37
2019-03-03T06:19:12.552Z,8.4
2019-03-03T06:20:12.667Z,8.3
2019-03-03T06:21:12.582Z,8.36
2019-03-03T06:22:12.595Z,8.45
2019-03-03T06:23:12.661Z,8.41
2019-03-03T06:24:12.628Z,8.4
2019-03-03T06:25:12.673Z,8.41
2019-03-03T06:26:12.660Z,8.48
2019-03-03T06:27:12.680Z,8.33
2019-03-03T06:28:12.697Z,8.5
2019-03-03T06:29:27.373Z,8.44
2019-03-03T06:30:12.733Z,8.43
2019-03-03T06:31:12.505Z,8.44
2019-03-03T06:32:12.763Z,8.47
2019-03-03T06:33:12.774Z,8.48
2019-03-03T06:34:12.792Z,8.45
2019-03-03T06:35:12.809Z,8.45
2019-03-03T06:36:12.869Z,8.55
2019-03-03T06:37:12.842Z,8.55
2019-03-03T06:38:12.860Z,8.58
2019-03-03T06:39:12.873Z,8.59
2019-03-03T06:40:12.896Z,8.56
2019-03-03T06:41:12.912Z,8.68
2019-03-03T06:42:12.931Z,8.65
2019-03-03T06:43:12.941Z,8.58
2019-03-03T06:44:27.621Z,8.63
2019-03-03T06:45:12.975Z,8.66
2019-03-03T06:46:12.991Z,8.61
2019-03-03T06:47:13.010Z,8.62
2019-03-03T06:48:27.690Z,8.79
2019-03-03T06:49:13.039Z,8.74
2019-03-03T06:50:13.066Z,8.77
2019-03-03T06:51:13.072Z,8.89
2019-03-03T06:52:13.089Z,8.76
2019-03-03T06:53:13.106Z,8.77
2019-03-03T06:54:13.126Z,8.81
2019-03-03T06:55:13.139Z,8.79
2019-03-03T06:56:13.154Z,8.83
2019-03-03T06:57:13.169Z,8.89
2019-03-03T06:58:13.185Z,8.89
2019-03-03T07:00:14.982Z,8.99
2019-03-03T07:01:27.901Z,9.08
2019-03-03T07:02:13.306Z,8.95
2019-03-03T07:03:13.274Z,8.94
2019-03-03T07:04:27.954Z,8.92
2019-03-03T07:05:13.305Z,9.05
2019-03-03T07:06:13.321Z,9.13
2019-03-03T07:07:13.341Z,9.11
2019-03-03T07:08:13.355Z,9.11
2019-03-03T07:09:13.368Z,9.1
2019-03-03T07:10:13.390Z,9.05
2019-03-03T07:11:14.929Z,9.17
2019-03-03T07:12:13.423Z,9.14
2019-03-03T07:14:13.457Z,9.29
2019-03-03T07:15:13.476Z,9.24
2019-03-03T07:16:13.491Z,9.33
2019-03-03T07:17:13.506Z,9.33
2019-03-03T07:18:13.524Z,9.31
2019-03-03T07:19:13.552Z,9.42
2019-03-03T07:20:28.220Z,9.35
2019-03-03T07:21:13.571Z,9.39
2019-03-03T07:22:13.589Z,9.33
2019-03-03T07:23:13.625Z,9.32
2019-03-03T07:24:13.634Z,9.47
2019-03-03T07:25:13.638Z,9.39
2019-03-03T07:26:13.665Z,9.43
2019-03-03T07:27:13.682Z,9.48
2019-03-03T07:28:14.689Z,9.53
2019-03-03T07:29:13.713Z,9.51
2019-03-03T07:30:13.726Z,9.6
2019-03-03T07:31:13.737Z,9.61
2019-03-03T07:32:13.807Z,9.57
2019-03-03T07:33:13.774Z,9.58
2019-03-03T07:34:13.793Z,9.65
2019-03-03T07:35:13.809Z,9.72
2019-03-03T07:36:28.488Z,9.68
2019-03-03T07:37:13.844Z,9.76
2019-03-03T07:38:13.859Z,9.76
2019-03-03T07:39:13.875Z,9.83
2019-03-03T07:40:13.894Z,9.84
2019-03-03T07:41:13.911Z,9.84
2019-03-03T07:42:13.932Z,9.84
2019-03-03T07:43:14.049Z,9.94
2019-03-03T07:45:13.981Z,9.97
2019-03-03T07:46:14.000Z,9.97
2019-03-03T07:47:14.013Z,10.04
2019-03-03T07:48:14.057Z,10.05
2019-03-03T07:49:14.057Z,10.14
2019-03-03T07:50:14.070Z,10.15
2019-03-03T07:51:28.858Z,10.22
2019-03-03T07:52:14.104Z,10.14
2019-03-03T07:53:14.118Z,10.18
2019-03-03T07:54:13.893Z,10.15
2019-03-03T07:55:14.154Z,10.15
2019-03-03T07:56:14.179Z,10.25
2019-03-03T07:57:14.189Z,10.26
2019-03-03T07:58:14.204Z,10.29
2019-03-03T07:59:14.226Z,10.33
2019-03-03T08:00:14.239Z,10.41
2019-03-03T08:01:14.261Z,10.34
2019-03-03T08:02:14.277Z,10.44
2019-03-03T08:03:14.296Z,10.34
2019-03-03T08:04:14.315Z,10.52
2019-03-03T08:05:14.329Z,10.42
2019-03-03T08:06:14.347Z,10.45
2019-03-03T08:07:14.367Z,10.42
2019-03-03T08:08:14.395Z,10.51
2019-03-03T08:09:14.397Z,10.47
2019-03-03T08:10:14.421Z,10.51
2019-03-03T08:11:14.436Z,10.53
2019-03-03T08:12:14.450Z,10.51
2019-03-03T08:13:14.623Z,10.63
2019-03-03T08:14:14.487Z,10.63
2019-03-03T08:16:15.837Z,10.82
2019-03-03T08:17:14.541Z,10.73
2019-03-03T08:18:14.558Z,10.82
2019-03-03T08:19:14.574Z,10.86
2019-03-03T08:20:14.603Z,10.91
2019-03-03T08:21:14.616Z,10.89
2019-03-03T08:22:14.682Z,10.88
2019-03-03T08:23:29.310Z,10.89
2019-03-03T08:24:14.664Z,10.91
2019-03-03T08:25:14.687Z,11.06
2019-03-03T08:26:14.698Z,11.06
2019-03-03T08:27:14.719Z,11.06
2019-03-03T08:28:14.747Z,11.02
2019-03-03T08:29:14.758Z,11.06
2019-03-03T08:30:14.771Z,11.07
2019-03-03T08:31:14.792Z,11.09
2019-03-03T08:32:14.806Z,11.07
2019-03-03T08:33:14.824Z,11.09
2019-03-03T08:34:14.843Z,11.17
2019-03-03T08:35:14.862Z,11.06
2019-03-03T08:36:14.880Z,11.06
2019-03-03T08:37:29.560Z,11.07
2019-03-03T08:38:14.920Z,11.14
2019-03-03T08:39:29.599Z,11.09
2019-03-03T08:40:14.956Z,11.24
2019-03-03T08:41:14.970Z,11.27
2019-03-03T08:42:14.987Z,11.27
2019-03-03T08:43:15.005Z,11.27
2019-03-03T08:44:15.023Z,11.39
2019-03-03T08:45:15.040Z,11.52
2019-03-03T08:46:15.061Z,11.55
2019-03-03T08:49:15.171Z,11.54
2019-03-03T08:50:15.135Z,11.55
2019-03-03T08:51:29.816Z,11.55
2019-03-03T08:52:29.836Z,11.43
2019-03-03T08:53:15.188Z,11.51
2019-03-03T08:54:15.207Z,11.46
2019-03-03T08:55:29.888Z,11.49
2019-03-03T08:56:15.289Z,11.44
2019-03-03T08:57:15.260Z,11.46
2019-03-03T08:58:15.281Z,11.47
2019-03-03T08:59:15.299Z,11.47
2019-03-03T09:00:15.317Z,11.44
2019-03-03T09:01:15.336Z,11.52
2019-03-03T09:02:15.358Z,11.52
2019-03-03T09:03:15.371Z,11.49
2019-03-03T09:04:15.390Z,11.47
2019-03-03T09:05:15.408Z,11.52
2019-03-03T09:06:15.426Z,11.58
2019-03-03T09:07:15.447Z,11.57
2019-03-03T09:08:30.128Z,11.54
2019-03-03T09:09:15.506Z,11.6
2019-03-03T09:10:24.971Z,11.55
2019-03-03T09:11:30.182Z,11.52
2019-03-03T09:12:15.541Z,11.49
2019-03-03T09:13:15.599Z,11.43
2019-03-03T09:14:15.576Z,11.47
2019-03-03T09:15:15.593Z,11.36
2019-03-03T09:16:15.613Z,11.37
2019-03-03T09:17:15.633Z,11.35
2019-03-03T09:18:15.649Z,11.37
2019-03-03T09:19:15.669Z,11.36
2019-03-03T09:20:15.694Z,11.33
2019-03-03T09:21:15.809Z,11.33
2019-03-03T09:22:15.723Z,11.33
2019-03-03T09:23:30.406Z,11.33
2019-03-03T09:24:15.762Z,11.42
2019-03-03T09:25:15.779Z,11.42
2019-03-03T09:26:30.462Z,11.49
2019-03-03T09:27:15.878Z,11.46
2019-03-03T09:28:15.837Z,11.39
2019-03-03T09:29:15.856Z,11.47
2019-03-03T09:30:15.629Z,11.42
2019-03-03T09:31:15.897Z,11.46
2019-03-03T09:32:15.910Z,11.42
2019-03-03T09:33:15.936Z,11.44
2019-03-03T09:34:15.952Z,11.43
2019-03-03T09:35:15.970Z,11.44
2019-03-03T09:36:15.986Z,11.44
2019-03-03T09:37:16.001Z,11.44
2019-03-03T09:38:16.023Z,11.44
2019-03-03T09:39:16.039Z,11.55
2019-03-03T09:40:16.055Z,11.57
2019-03-03T09:41:16.075Z,11.6
2019-03-03T09:42:16.094Z,11.61
2019-03-03T09:43:16.123Z,11.64
2019-03-03T09:44:16.131Z,11.69
2019-03-03T09:45:16.151Z,11.75
2019-03-03T09:46:16.178Z,11.75
2019-03-03T09:47:16.185Z,11.72
2019-03-03T09:48:16.204Z,11.69
2019-03-03T09:51:16.267Z,11.76
2019-03-03T09:52:16.283Z,11.78
2019-03-03T09:53:16.298Z,11.83
2019-03-03T09:54:16.317Z,11.76
2019-03-03T09:55:16.345Z,11.88
2019-03-03T09:56:16.359Z,11.96
2019-03-03T09:57:31.034Z,12.01
2019-03-03T09:58:31.055Z,11.98
2019-03-03T09:59:16.418Z,12.04
2019-03-03T10:00:16.428Z,12.07
2019-03-03T10:01:16.449Z,12.09
2019-03-03T10:02:16.468Z,12.17
2019-03-03T10:03:16.486Z,12.16
2019-03-03T10:04:16.509Z,12.16
2019-03-03T10:05:16.522Z,12.07
2019-03-03T10:06:16.551Z,12.01
2019-03-03T10:08:16.579Z,12.01
2019-03-03T10:09:16.596Z,11.94
2019-03-03T10:11:31.299Z,11.98
2019-03-03T10:12:31.320Z,12.04
2019-03-03T10:13:16.672Z,12.01
2019-03-03T10:14:31.356Z,12.04
2019-03-03T10:15:16.713Z,11.99
2019-03-03T10:16:16.729Z,12.04
2019-03-03T10:17:16.853Z,12.14
2019-03-03T10:18:16.766Z,12.09
2019-03-03T10:19:16.787Z,12.19
2019-03-03T10:20:16.803Z,12.19
2019-03-03T10:21:31.493Z,12.28
2019-03-03T10:22:16.842Z,12.39
2019-03-03T10:23:16.859Z,12.31
2019-03-03T10:24:16.888Z,12.27
2019-03-03T10:25:16.900Z,12.42
2019-03-03T10:26:31.583Z,12.28
2019-03-03T10:27:31.602Z,12.24
2019-03-03T10:28:16.965Z,12.32
2019-03-03T10:29:16.977Z,12.23
2019-03-03T10:30:31.659Z,12.24
2019-03-03T10:31:17.019Z,12.27
2019-03-03T10:32:17.033Z,12.32
2019-03-03T10:33:17.056Z,12.37
2019-03-03T10:34:17.072Z,12.34
2019-03-03T10:35:17.100Z,12.19
2019-03-03T10:36:17.112Z,12.13
2019-03-03T10:37:19.237Z,11.98
2019-03-03T10:38:17.149Z,12.04
2019-03-03T10:40:17.194Z,12.04
2019-03-03T10:41:17.207Z,12.1
2019-03-03T10:42:31.891Z,12.21
2019-03-03T10:43:31.910Z,12.29
2019-03-03T10:44:17.263Z,12.24
2019-03-03T10:45:17.279Z,12.23
2019-03-03T10:46:31.967Z,12.27
2019-03-03T10:47:17.320Z,12.27
2019-03-03T10:48:17.396Z,12.37
2019-03-03T10:49:17.356Z,12.37
2019-03-03T10:50:17.133Z,12.39
2019-03-03T10:53:17.433Z,12.35
2019-03-03T10:54:17.454Z,12.37
2019-03-03T10:55:17.474Z,12.31
2019-03-03T10:56:17.497Z,12.28
2019-03-03T10:57:17.508Z,12.29
2019-03-03T10:58:32.195Z,12.02
2019-03-03T10:59:17.601Z,12.05
2019-03-03T11:00:17.574Z,12.01
2019-03-03T11:01:32.256Z,11.91
2019-03-03T11:02:17.363Z,11.98
2019-03-03T11:03:17.638Z,12.05
2019-03-03T11:04:17.647Z,12.01
2019-03-03T11:05:17.665Z,12.16
2019-03-03T11:06:17.694Z,12.17
2019-03-03T11:07:17.703Z,12.28
2019-03-03T11:08:17.762Z,12.27
2019-03-03T11:09:17.750Z,12.39
2019-03-03T11:10:17.773Z,12.49
2019-03-03T11:12:17.807Z,12.52
2019-03-03T11:13:17.822Z,12.45
2019-03-03T11:14:17.840Z,12.5
2019-03-03T11:15:23.452Z,12.54
2019-03-03T11:16:17.877Z,12.67
2019-03-03T11:17:17.900Z,12.68
2019-03-03T11:18:18.942Z,12.74
2019-03-03T11:19:20.006Z,12.79
2019-03-03T11:21:17.975Z,12.79
2019-03-03T11:22:17.997Z,12.83
2019-03-03T11:23:18.029Z,12.82
2019-03-03T11:24:18.032Z,12.86
2019-03-03T11:25:18.065Z,12.9
2019-03-03T11:26:18.070Z,12.85
2019-03-03T11:27:18.092Z,12.85
2019-03-03T11:28:28.242Z,12.87
2019-03-03T11:29:18.137Z,12.87
2019-03-03T11:30:18.153Z,12.86
2019-03-03T11:31:18.170Z,12.86
2019-03-03T11:32:18.190Z,12.89
2019-03-03T11:33:32.873Z,12.92
2019-03-03T11:34:18.245Z,12.95
2019-03-03T11:35:18.250Z,12.9
2019-03-03T11:36:18.264Z,12.9
2019-03-03T11:37:18.979Z,12.85
2019-03-03T11:38:18.308Z,12.83
2019-03-03T11:39:18.349Z,12.83
2019-03-03T11:40:18.344Z,12.97
2019-03-03T11:42:33.056Z,12.9
2019-03-03T11:43:18.461Z,12.89
2019-03-03T11:44:18.424Z,12.87
2019-03-03T11:45:18.444Z,12.87
2019-03-03T11:46:18.463Z,12.83
2019-03-03T11:47:33.145Z,12.85
2019-03-03T11:48:19.793Z,12.89
2019-03-03T11:49:33.184Z,12.87
2019-03-03T11:51:18.561Z,12.72
2019-03-03T11:52:19.010Z,12.78
2019-03-03T11:53:18.603Z,12.68
2019-03-03T11:54:18.620Z,12.67
2019-03-03T11:55:18.649Z,12.65
2019-03-03T11:56:18.657Z,12.68
2019-03-03T11:57:18.681Z,12.67
2019-03-03T11:58:18.699Z,12.53
2019-03-03T11:59:18.716Z,12.64
2019-03-03T12:00:18.738Z,12.56
2019-03-03T12:01:18.758Z,12.54
2019-03-03T12:02:18.785Z,12.53
2019-03-03T12:03:18.815Z,12.57
2019-03-03T12:04:18.813Z,12.64
2019-03-03T12:05:33.495Z,12.68
2019-03-03T12:06:18.911Z,12.64
2019-03-03T12:07:18.873Z,12.57
2019-03-03T12:08:19.092Z,12.5
2019-03-03T12:09:19.014Z,12.5
2019-03-03T12:10:18.930Z,12.41
2019-03-03T12:11:19.755Z,12.41
2019-03-03T12:12:18.972Z,12.34
2019-03-03T12:13:19.419Z,12.32
2019-03-03T12:14:18.759Z,12.35
2019-03-03T12:15:19.027Z,12.35
2019-03-03T12:16:33.815Z,12.23
2019-03-03T12:17:19.064Z,12.2
2019-03-03T12:18:19.084Z,12.19
2019-03-03T12:19:19.104Z,12.21
2019-03-03T12:20:19.122Z,12.05
2019-03-03T12:21:33.806Z,11.95
2019-03-03T12:23:19.678Z,11.94
2019-03-03T12:24:18.954Z,11.91
2019-03-03T12:26:19.239Z,11.96
2019-03-03T12:27:19.258Z,11.82
2019-03-03T12:28:19.282Z,11.94
2019-03-03T12:29:19.298Z,11.94
2019-03-03T12:31:19.343Z,11.98
2019-03-03T12:32:19.397Z,12.04
2019-03-03T12:33:19.375Z,11.98
2019-03-03T12:34:34.056Z,11.98
2019-03-03T12:35:19.410Z,12.04
2019-03-03T12:36:34.098Z,12.04
2019-03-03T12:37:19.893Z,12.01
2019-03-03T12:38:19.468Z,11.94
2019-03-03T12:39:19.242Z,11.95
2019-03-03T12:40:19.508Z,12.01
2019-03-03T12:41:19.526Z,11.91
2019-03-03T12:42:19.545Z,11.96
2019-03-03T12:44:19.585Z,11.95
2019-03-03T12:45:19.607Z,11.95
2019-03-03T12:46:34.289Z,11.98
2019-03-03T12:47:19.645Z,12.09
2019-03-03T12:48:19.664Z,12.05
2019-03-03T12:49:19.687Z,11.94
2019-03-03T12:50:19.704Z,11.91
2019-03-03T12:51:19.721Z,11.95
2019-03-03T12:52:19.745Z,11.99
2019-03-03T12:53:19.759Z,12.1
2019-03-03T12:54:19.800Z,12.05
2019-03-03T12:55:19.796Z,12.07
2019-03-03T12:56:19.816Z,12.19
2019-03-03T12:57:19.835Z,12.17
2019-03-03T12:58:19.857Z,12.12
2019-03-03T12:59:19.875Z,12.07
2019-03-03T13:00:19.893Z,12.27
2019-03-03T13:01:19.915Z,12.29
2019-03-03T13:02:19.936Z,12.29
2019-03-03T13:03:19.969Z,12.32
2019-03-03T13:04:19.972Z,12.35
2019-03-03T13:05:19.991Z,12.35
2019-03-03T13:06:30.392Z,12.32
2019-03-03T13:07:20.032Z,12.35
2019-03-03T13:08:34.715Z,12.27
2019-03-03T13:09:20.069Z,12.38
2019-03-03T13:10:20.090Z,12.32
2019-03-03T13:11:20.112Z,12.34
2019-03-03T13:12:20.127Z,12.41
2019-03-03T13:14:20.171Z,12.41
2019-03-03T13:16:34.874Z,12.21
2019-03-03T13:17:20.233Z,12.29
2019-03-03T13:18:20.243Z,12.32
2019-03-03T13:19:20.266Z,12.29
2019-03-03T13:20:34.952Z,12.37
2019-03-03T13:21:20.305Z,12.28
2019-03-03T13:22:20.081Z,12.34
2019-03-03T13:23:20.530Z,12.37
2019-03-03T13:25:20.387Z,12.29
2019-03-03T13:26:20.400Z,12.19
2019-03-03T13:27:20.423Z,12.16
2019-03-03T13:28:21.209Z,12.14
2019-03-03T13:29:20.463Z,12.19
2019-03-03T13:30:20.479Z,12.24
2019-03-03T13:31:20.608Z,12.27
2019-03-03T13:32:20.522Z,12.27
2019-03-03T13:33:20.538Z,12.27
2019-03-03T13:34:20.567Z,12.32
2019-03-03T13:35:20.597Z,12.23
2019-03-03T13:36:20.600Z,12.27
2019-03-03T13:37:20.618Z,12.32
2019-03-03T13:38:20.637Z,12.35
2019-03-03T13:39:20.657Z,12.35
2019-03-03T13:40:35.342Z,12.31
2019-03-03T13:41:20.697Z,12.37
2019-03-03T13:42:20.723Z,12.31
2019-03-03T13:43:20.739Z,12.39
2019-03-03T13:44:20.756Z,12.28
2019-03-03T13:45:20.811Z,12.28
2019-03-03T13:46:20.549Z,12.23
2019-03-03T13:47:20.812Z,12.28
2019-03-03T13:48:20.831Z,12.19
2019-03-03T13:49:20.857Z,12.17
2019-03-03T13:50:20.875Z,12.21
2019-03-03T13:51:20.890Z,12.31
2019-03-03T13:52:20.913Z,12.24
2019-03-03T13:53:35.593Z,12.38
2019-03-03T13:54:20.951Z,12.39
2019-03-03T13:55:20.972Z,12.39
2019-03-03T13:56:35.655Z,12.39
2019-03-03T13:57:21.010Z,12.37